createdAt,value
2023-01-08T00:01:06.311Z,8.13
2023-01-08T00:03:34.528Z,8.60
2023-01-08T00:06:03.368Z,8.77
2023-01-08T00:08:31.829Z,8.13
2023-01-08T00:11:00.218Z,8.00
2023-01-08T00:13:29.687Z,9.03
2023-01-08T00:16:03.934Z,8.93
2023-01-08T00:18:31.897Z,8.50
2023-01-08T00:20:59.918Z,8.17
2023-01-08T00:23:28.279Z,7.87
2023-01-08T00:25:58.193Z,6.50
2023-01-08T00:28:26.216Z,7.73
2023-01-08T00:30:55.381Z,7.67
2023-01-08T00:33:23.203Z,8.87
2023-01-08T00:35:51.082Z,6.97
2023-01-08T00:38:18.882Z,8.57
2023-01-08T00:40:46.733Z,8.27
2023-01-08T00:43:14.477Z,8.57
2023-01-08T00:45:43.348Z,9.07
2023-01-08T00:48:14.901Z,8.00
2023-01-08T00:50:42.787Z,8.50
2023-01-08T00:53:10.611Z,7.83
2023-01-08T00:55:38.580Z,8.03
2023-01-08T00:58:06.317Z,7.07
2023-01-08T01:00:34.145Z,6.23
2023-01-08T01:03:01.881Z,5.50
2023-01-08T01:05:33.451Z,5.40
2023-01-08T01:08:01.262Z,5.80
2023-01-08T01:10:28.965Z,8.57
2023-01-08T01:12:56.777Z,7.43
2023-01-08T01:15:24.509Z,5.83
2023-01-08T01:17:52.348Z,7.13
2023-01-08T01:20:20.247Z,5.73
2023-01-08T01:22:49.282Z,7.27
2023-01-08T01:25:19.384Z,7.07
2023-01-08T01:27:47.210Z,7.20
2023-01-08T01:30:17.205Z,5.90
2023-01-08T01:32:44.955Z,7.73
2023-01-08T01:35:12.960Z,6.00
2023-01-08T01:37:40.712Z,7.53
2023-01-08T01:40:11.145Z,8.33
2023-01-08T01:42:41.600Z,7.50
2023-01-08T01:45:21.260Z,7.70
2023-01-08T01:47:53.593Z,6.33
2023-01-08T01:50:26.923Z,5.80
2023-01-08T01:53:00.264Z,6.60
2023-01-08T01:55:30.132Z,8.20
2023-01-08T01:58:04.469Z,8.63
2023-01-08T02:00:33.956Z,8.17
2023-01-08T02:03:02.186Z,8.03
2023-01-08T02:05:41.780Z,9.37
2023-01-08T02:08:13.737Z,7.97
2023-01-08T02:10:49.964Z,8.67
2023-01-08T02:13:28.660Z,9.07
2023-01-08T02:16:01.477Z,7.13
2023-01-08T02:18:36.870Z,8.50
2023-01-08T02:21:09.939Z,7.60
2023-01-08T02:23:47.209Z,6.93
2023-01-08T02:26:21.056Z,7.40
2023-01-08T02:28:54.172Z,6.77
2023-01-08T02:31:24.830Z,6.20
2023-01-08T02:33:55.300Z,5.90
2023-01-08T02:36:37.144Z,6.00
2023-01-08T02:39:15.596Z,5.97
2023-01-08T02:42:02.747Z,7.20
2023-01-08T02:44:46.093Z,7.43
2023-01-08T02:47:25.857Z,7.37
2023-01-08T02:50:03.508Z,7.33
2023-01-08T02:52:33.718Z,8.23
2023-01-08T02:55:04.525Z,6.03
2023-01-08T02:57:35.315Z,5.47
2023-01-08T03:00:06.225Z,8.33
2023-01-08T03:02:38.543Z,8.20
2023-01-08T03:05:13.138Z,6.50
2023-01-08T03:07:41.319Z,6.40
2023-01-08T03:10:09.743Z,5.60
2023-01-08T03:12:47.036Z,5.63
2023-01-08T03:15:22.253Z,6.57
2023-01-08T03:17:53.915Z,8.67
2023-01-08T03:20:24.259Z,6.70
2023-01-08T03:22:55.668Z,7.53
2023-01-08T03:25:25.540Z,6.43
2023-01-08T03:27:57.723Z,7.30
2023-01-08T03:30:26.527Z,7.57
2023-01-08T03:32:56.803Z,8.50
2023-01-08T03:35:26.060Z,7.37
2023-01-08T03:37:58.217Z,6.53
2023-01-08T03:40:30.440Z,6.23
2023-01-08T03:42:59.623Z,9.77
2023-01-08T03:45:31.181Z,7.17
2023-01-08T03:48:02.150Z,7.03
2023-01-08T03:50:33.377Z,7.67
2023-01-08T03:53:01.258Z,6.77
2023-01-08T03:55:29.107Z,6.03
2023-01-08T03:58:00.391Z,6.00
2023-01-08T04:00:28.268Z,6.40
2023-01-08T04:02:58.285Z,5.63
2023-01-08T04:05:26.160Z,6.07
2023-01-08T04:07:56.157Z,6.30
2023-01-08T04:10:23.877Z,7.30
2023-01-08T04:12:51.698Z,5.73
2023-01-08T04:15:20.963Z,5.43
2023-01-08T04:17:48.754Z,6.13
2023-01-08T04:20:16.925Z,6.00
2023-01-08T04:22:44.676Z,8.77
2023-01-08T04:25:14.514Z,6.10
2023-01-08T04:27:42.208Z,4.73
2023-01-08T04:30:11.527Z,4.80
2023-01-08T04:32:42.985Z,4.37
2023-01-08T04:35:11.313Z,4.70
2023-01-08T04:37:39.025Z,4.10
2023-01-08T04:40:07.988Z,4.37
2023-01-08T04:42:35.677Z,5.33
2023-01-08T04:45:03.554Z,6.07
2023-01-08T04:47:31.485Z,4.20
2023-01-08T04:50:00.728Z,4.83
2023-01-08T04:52:29.344Z,5.73
2023-01-08T04:54:57.115Z,6.60
2023-01-08T04:57:24.810Z,5.07
2023-01-08T04:59:52.625Z,5.47
2023-01-08T05:02:20.610Z,5.13
2023-01-08T05:04:48.971Z,3.47
2023-01-08T05:07:20.369Z,3.23
2023-01-08T05:09:48.053Z,3.53
2023-01-08T05:12:15.877Z,3.43
2023-01-08T05:14:43.587Z,2.50
2023-01-08T05:17:11.361Z,3.03
2023-01-08T05:19:39.087Z,2.87
2023-01-08T05:22:06.822Z,2.50
2023-01-08T05:24:36.344Z,2.77
2023-01-08T05:27:04.027Z,2.13
2023-01-08T05:29:31.808Z,2.30
2023-01-08T05:32:01.940Z,2.27
2023-01-08T05:34:29.926Z,1.60
2023-01-08T05:36:57.709Z,2.27
2023-01-08T05:39:27.544Z,1.83
2023-01-08T05:41:56.552Z,1.30
2023-01-08T05:44:24.330Z,2.20
2023-01-08T05:46:54.186Z,1.60
2023-01-08T05:49:23.844Z,1.87
2023-01-08T05:51:51.598Z,1.60
2023-01-08T05:54:19.527Z,1.70
2023-01-08T05:56:47.324Z,1.60
2023-01-08T05:59:16.458Z,2.13
2023-01-08T06:01:44.226Z,1.90
2023-01-08T06:04:11.932Z,1.40
2023-01-08T06:06:39.738Z,1.37
2023-01-08T06:09:07.523Z,1.30
2023-01-08T06:11:35.288Z,1.20
2023-01-08T06:14:03.100Z,1.57
2023-01-08T06:16:32.141Z,1.17
2023-01-08T06:18:59.882Z,1.83
2023-01-08T06:21:27.628Z,0.90
2023-01-08T06:23:57.949Z,1.37
2023-01-08T06:26:25.722Z,1.20
2023-01-08T06:28:53.451Z,1.13
2023-01-08T06:31:21.222Z,1.37
2023-01-08T06:33:50.544Z,0.80
2023-01-08T06:36:18.316Z,1.63
2023-01-08T06:38:46.114Z,1.10
2023-01-08T06:41:13.905Z,0.70
2023-01-08T06:43:41.628Z,0.87
2023-01-08T06:46:10.679Z,0.90
2023-01-08T06:48:38.593Z,1.10
2023-01-08T06:51:07.894Z,0.80
2023-01-08T06:53:35.765Z,0.77
2023-01-08T06:56:04.719Z,0.87
2023-01-08T06:58:32.642Z,0.87
2023-01-08T07:01:00.622Z,0.80
2023-01-08T07:03:28.595Z,0.83
2023-01-08T07:05:56.423Z,0.73
2023-01-08T07:08:27.877Z,1.03
2023-01-08T07:10:55.981Z,1.37
2023-01-08T07:13:24.259Z,1.10
2023-01-08T07:15:52.044Z,1.03
2023-01-08T07:18:19.885Z,0.70
2023-01-08T07:20:49.308Z,0.70
2023-01-08T07:23:17.128Z,0.80
2023-01-08T07:25:47.466Z,1.57
2023-01-08T07:28:15.294Z,0.77
2023-01-08T07:30:43.249Z,2.40
2023-01-08T07:33:10.990Z,1.07
2023-01-08T07:35:39.314Z,0.60
2023-01-08T07:38:07.131Z,0.90
2023-01-08T07:40:39.362Z,1.00
2023-01-08T07:43:12.344Z,1.30
2023-01-08T07:45:40.558Z,1.03
2023-01-08T07:48:10.559Z,1.47
2023-01-08T07:50:41.420Z,1.57
2023-01-08T07:53:09.898Z,0.90
2023-01-08T07:55:37.789Z,0.90
2023-01-08T07:58:11.061Z,1.40
2023-01-08T08:00:39.392Z,1.37
2023-01-08T08:03:09.253Z,1.10
2023-01-08T08:05:37.052Z,0.70
2023-01-08T08:08:09.679Z,0.93
2023-01-08T08:10:37.857Z,1.90
2023-01-08T08:13:05.812Z,1.03
2023-01-08T08:15:35.662Z,0.80
2023-01-08T08:18:03.687Z,1.57
2023-01-08T08:20:31.925Z,3.43
2023-01-08T08:23:03.155Z,1.10
2023-01-08T08:25:31.944Z,1.10
2023-01-08T08:28:01.645Z,1.33
2023-01-08T08:30:31.272Z,0.97
2023-01-08T08:33:02.211Z,0.70
2023-01-08T08:35:31.698Z,2.47
2023-01-08T08:37:59.774Z,1.40
2023-01-08T08:40:28.359Z,1.63
2023-01-08T08:42:57.526Z,1.17
2023-01-08T08:45:25.702Z,1.53
2023-01-08T08:47:53.528Z,1.83
2023-01-08T08:50:23.436Z,1.43
2023-01-08T08:52:51.256Z,1.17
2023-01-08T08:55:19.319Z,2.10
2023-01-08T08:57:47.976Z,1.17
2023-01-08T09:00:16.986Z,1.20
2023-01-08T09:02:45.033Z,2.57
2023-01-08T09:05:13.523Z,1.70
2023-01-08T09:07:42.665Z,1.17
2023-01-08T09:10:10.618Z,1.10
2023-01-08T09:12:38.442Z,1.80
2023-01-08T09:15:07.100Z,4.03
2023-01-08T09:17:36.833Z,1.03
2023-01-08T09:20:05.924Z,1.00
2023-01-08T09:22:34.019Z,1.17
2023-01-08T09:25:05.974Z,1.07
2023-01-08T09:27:33.710Z,1.40
2023-01-08T09:30:01.453Z,1.10
2023-01-08T09:32:29.289Z,2.23
2023-01-08T09:34:57.221Z,1.07
2023-01-08T09:37:25.231Z,1.07
2023-01-08T09:40:01.771Z,1.80
2023-01-08T09:42:32.917Z,2.27
2023-01-08T09:45:03.652Z,1.10
2023-01-08T09:47:37.278Z,1.30
2023-01-08T09:50:09.253Z,1.70
2023-01-08T09:52:39.680Z,1.67
2023-01-08T09:55:14.942Z,1.10
2023-01-08T09:57:48.242Z,1.20
2023-01-08T10:00:18.709Z,1.57
2023-01-08T10:02:46.760Z,1.33
2023-01-08T10:05:16.543Z,1.00
2023-01-08T10:07:45.058Z,1.70
2023-01-08T10:10:19.616Z,1.23
2023-01-08T10:12:50.411Z,0.80
2023-01-08T10:15:21.179Z,1.00
2023-01-08T10:18:00.096Z,1.83
2023-01-08T10:20:28.889Z,1.03
2023-01-08T10:22:57.020Z,1.30
2023-01-08T10:25:29.080Z,1.20
2023-01-08T10:28:03.162Z,1.53
2023-01-08T10:30:38.101Z,1.03
2023-01-08T10:33:11.837Z,0.90
2023-01-08T10:35:41.516Z,1.00
2023-01-08T10:38:26.670Z,1.20
2023-01-08T10:40:54.741Z,2.40
2023-01-08T10:43:29.465Z,1.20
2023-01-08T10:46:00.503Z,1.27
2023-01-08T10:48:36.463Z,1.10
2023-01-08T10:51:17.018Z,0.90
2023-01-08T10:53:45.276Z,0.77
2023-01-08T10:56:24.294Z,0.83
2023-01-08T10:58:54.136Z,0.80
2023-01-08T11:05:43.065Z,1.30
2023-01-08T11:08:17.793Z,1.27
2023-01-08T11:15:07.210Z,0.73
2023-01-08T11:17:35.674Z,1.53
2023-01-08T11:20:20.023Z,0.70
2023-01-08T11:22:47.891Z,2.50
2023-01-08T11:25:26.638Z,0.60
2023-01-08T11:27:56.435Z,1.23
2023-01-08T11:30:32.384Z,1.17
2023-01-08T11:33:05.848Z,0.80
2023-01-08T11:35:38.773Z,0.80
2023-01-08T11:38:08.263Z,1.40
2023-01-08T11:40:52.303Z,0.77
2023-01-08T11:43:30.686Z,1.63
2023-01-08T11:46:21.493Z,0.90
2023-01-08T11:49:10.414Z,0.60
2023-01-08T11:51:49.889Z,0.60
2023-01-08T11:54:32.861Z,0.50
2023-01-08T12:01:38.707Z,0.60
2023-01-08T12:04:24.350Z,0.50
2023-01-08T12:26:04.980Z,1.67
2023-01-08T12:28:59.476Z,1.50
2023-01-08T12:32:01.570Z,0.90
2023-01-08T12:34:39.582Z,0.70
2023-01-08T12:37:14.481Z,1.77
2023-01-08T12:39:48.931Z,1.43
2023-01-08T12:42:24.508Z,0.67
2023-01-08T12:44:55.108Z,1.63
2023-01-08T12:47:27.902Z,1.27
2023-01-08T12:50:05.376Z,1.13
2023-01-08T12:52:40.433Z,1.57
2023-01-08T12:55:22.456Z,1.47
2023-01-08T12:58:01.586Z,0.77
2023-01-08T13:00:37.609Z,0.80
2023-01-08T13:03:14.941Z,0.97
2023-01-08T13:05:48.391Z,1.03
2023-01-08T13:08:34.439Z,0.80
2023-01-08T13:11:03.945Z,0.90
2023-01-08T13:13:36.545Z,0.63
2023-01-08T13:16:10.179Z,0.60
2023-01-08T13:18:39.886Z,0.57
2023-01-08T13:21:12.366Z,0.70
2023-01-08T13:23:40.459Z,0.70
2023-01-08T13:26:08.583Z,0.60
2023-01-08T13:28:46.008Z,0.93
2023-01-08T13:31:28.430Z,0.87
2023-01-08T13:33:56.797Z,0.83
2023-01-08T13:36:26.997Z,0.90
2023-01-08T13:39:19.316Z,0.70
2023-01-08T13:41:59.527Z,0.63
2023-01-08T13:44:31.106Z,1.10
2023-01-08T13:47:03.067Z,0.70
2023-01-08T13:49:36.788Z,0.80
2023-01-08T13:52:05.189Z,0.87
2023-01-08T13:54:38.515Z,1.10
2023-01-08T13:57:13.511Z,0.87
2023-01-08T13:59:49.136Z,1.27
2023-01-08T14:02:26.531Z,0.83
2023-01-08T14:04:55.578Z,1.93
2023-01-08T14:07:24.940Z,1.07
2023-01-08T14:09:53.091Z,0.90
2023-01-08T14:12:23.698Z,0.67
2023-01-08T14:14:58.802Z,0.80
2023-01-08T14:17:32.329Z,2.03
2023-01-08T14:20:00.666Z,1.03
2023-01-08T14:22:33.089Z,0.87
2023-01-08T14:25:07.823Z,1.00
2023-01-08T14:27:36.352Z,0.70
2023-01-08T14:30:17.093Z,0.90
2023-01-08T14:32:46.388Z,0.70
2023-01-08T14:35:18.083Z,0.83
2023-01-08T14:37:46.007Z,0.80
2023-01-08T14:40:18.717Z,1.60
2023-01-08T14:42:53.017Z,1.10
2023-01-08T14:45:48.650Z,1.03
2023-01-08T14:48:26.044Z,1.47
2023-01-08T14:51:05.694Z,1.00
2023-01-08T14:53:36.706Z,0.90
2023-01-08T14:56:06.679Z,0.60
2023-01-08T14:58:40.173Z,2.63
2023-01-08T15:01:17.019Z,0.73
2023-01-08T15:03:46.690Z,0.90
2023-01-08T15:06:25.398Z,0.93
2023-01-08T15:08:53.937Z,1.53
2023-01-08T15:11:24.591Z,1.03
2023-01-08T15:13:54.402Z,1.40
2023-01-08T15:16:29.679Z,6.80
2023-01-08T15:19:04.157Z,1.00
2023-01-08T15:21:32.558Z,0.70
2023-01-08T15:24:02.192Z,0.57
2023-01-08T15:26:53.502Z,1.63
2023-01-08T15:29:46.868Z,1.20
2023-01-08T15:32:23.699Z,0.77
2023-01-08T15:34:51.654Z,1.50
2023-01-08T15:37:19.511Z,0.90
2023-01-08T15:39:47.507Z,1.10
2023-01-08T15:42:38.441Z,0.83
2023-01-08T15:45:08.420Z,1.00
2023-01-08T15:47:37.703Z,1.87
2023-01-08T15:50:06.885Z,1.60
2023-01-08T15:52:35.759Z,1.50
2023-01-08T15:55:05.613Z,1.07
2023-01-08T15:57:33.535Z,1.20
2023-01-08T16:00:02.516Z,1.10
2023-01-08T16:02:46.246Z,1.10
2023-01-08T16:05:15.158Z,1.03
2023-01-08T16:07:42.926Z,1.57
2023-01-08T16:10:11.234Z,1.80
2023-01-08T16:12:39.220Z,1.40
2023-01-08T16:15:08.665Z,1.00
2023-01-08T16:17:36.633Z,2.80
2023-01-08T16:20:06.458Z,1.30
2023-01-08T16:22:36.401Z,1.00
2023-01-08T16:25:04.712Z,1.43
2023-01-08T16:27:35.421Z,3.93
2023-01-08T16:30:07.905Z,1.50
2023-01-08T16:32:35.738Z,2.23
2023-01-08T16:35:05.149Z,1.90
2023-01-08T16:37:33.043Z,1.20
2023-01-08T16:40:02.979Z,2.93
2023-01-08T16:42:30.863Z,3.83
2023-01-08T16:44:58.731Z,2.50
2023-01-08T16:47:26.599Z,1.97
2023-01-08T16:49:54.426Z,2.90
2023-01-08T16:52:23.804Z,2.40
2023-01-08T16:54:51.699Z,2.57
2023-01-08T16:57:19.603Z,4.93
2023-01-08T16:59:47.528Z,5.10
2023-01-08T17:02:15.388Z,3.00
2023-01-08T17:04:45.947Z,3.17
2023-01-08T17:07:14.459Z,3.37
2023-01-08T17:09:43.848Z,4.57
2023-01-08T17:12:11.708Z,4.03
2023-01-08T17:14:39.587Z,3.87
2023-01-08T17:17:07.415Z,3.63
2023-01-08T17:19:35.318Z,3.60
2023-01-08T17:22:03.176Z,3.90
2023-01-08T17:24:31.087Z,4.47
2023-01-08T17:27:00.277Z,3.10
2023-01-08T17:29:28.246Z,2.67
2023-01-08T17:31:56.027Z,1.90
2023-01-08T17:34:23.797Z,2.97
2023-01-08T17:36:51.603Z,2.93
2023-01-08T17:39:19.481Z,2.70
2023-01-08T17:42:04.702Z,3.27
2023-01-08T17:44:34.228Z,6.47
2023-01-08T17:47:02.180Z,5.40
2023-01-08T17:49:30.958Z,3.93
2023-01-08T17:51:58.848Z,4.80
2023-01-08T17:54:26.670Z,5.07
2023-01-08T17:56:54.634Z,2.60
2023-01-08T17:59:22.580Z,3.47
2023-01-08T18:01:53.755Z,4.13
2023-01-08T18:04:21.917Z,3.80
2023-01-08T18:06:50.025Z,3.77
2023-01-08T18:09:18.606Z,3.20
2023-01-08T18:11:49.013Z,3.13
2023-01-08T18:14:17.972Z,5.63
2023-01-08T18:16:46.099Z,3.80
2023-01-08T18:19:16.655Z,3.13
2023-01-08T18:21:45.499Z,5.40
2023-01-08T18:24:14.213Z,4.33
2023-01-08T18:26:42.960Z,4.90
2023-01-08T18:29:10.796Z,5.23
2023-01-08T18:31:38.823Z,4.63
2023-01-08T18:34:06.807Z,5.10
2023-01-08T18:36:36.714Z,5.17
2023-01-08T18:39:04.700Z,5.57
2023-01-08T18:41:50.242Z,4.60
2023-01-08T18:44:18.054Z,4.80
2023-01-08T18:46:48.020Z,5.27
2023-01-08T18:49:16.503Z,5.00
2023-01-08T18:51:45.768Z,5.97
2023-01-08T18:54:16.923Z,4.70
2023-01-08T18:56:46.392Z,6.53
2023-01-08T18:59:14.540Z,5.87
2023-01-08T19:01:44.828Z,6.73
2023-01-08T19:04:17.056Z,4.67
2023-01-08T19:06:46.661Z,4.70
2023-01-08T19:09:16.291Z,6.10
2023-01-08T19:11:44.441Z,4.63
2023-01-08T19:14:13.287Z,4.67
2023-01-08T19:16:43.221Z,3.60
2023-01-08T19:19:11.417Z,4.53
2023-01-08T19:21:39.416Z,4.03
2023-01-08T19:24:09.346Z,4.77
2023-01-08T19:26:39.603Z,4.07
2023-01-08T19:29:07.817Z,5.70
2023-01-08T19:31:36.011Z,4.30
2023-01-08T19:34:04.687Z,4.17
2023-01-08T19:36:33.978Z,6.43
2023-01-08T19:39:02.035Z,4.43
2023-01-08T19:41:48.899Z,5.17
2023-01-08T19:44:16.810Z,4.97
2023-01-08T19:46:44.589Z,5.13
2023-01-08T19:49:12.390Z,4.13
2023-01-08T19:51:40.423Z,3.90
2023-01-08T19:54:08.551Z,4.30
2023-01-08T19:56:37.817Z,5.10
2023-01-08T19:59:05.856Z,7.67
2023-01-08T20:01:34.087Z,4.63
2023-01-08T20:04:02.002Z,3.90
2023-01-08T20:06:29.852Z,3.93
2023-01-08T20:08:58.942Z,3.97
2023-01-08T20:11:27.429Z,5.47
2023-01-08T20:14:00.378Z,5.63
2023-01-08T20:16:29.682Z,4.73
2023-01-08T20:18:59.242Z,6.60
2023-01-08T20:21:27.109Z,4.30
2023-01-08T20:23:59.157Z,4.33
2023-01-08T20:26:28.508Z,5.40
2023-01-08T20:28:59.054Z,4.67
2023-01-08T20:31:30.673Z,6.33
2023-01-08T20:34:00.164Z,6.13
2023-01-08T20:36:29.889Z,5.77
2023-01-08T20:38:59.690Z,6.43
2023-01-08T20:41:30.096Z,6.00
2023-01-08T20:43:59.337Z,6.60
2023-01-08T20:46:29.413Z,5.23
2023-01-08T20:48:59.640Z,6.60
2023-01-08T20:51:27.513Z,4.73
2023-01-08T20:53:57.945Z,8.43
2023-01-08T20:56:25.743Z,5.80
2023-01-08T20:58:53.639Z,7.10
2023-01-08T21:01:25.174Z,7.07
2023-01-08T21:03:55.951Z,8.77
2023-01-08T21:06:26.389Z,8.37
2023-01-08T21:08:55.944Z,5.93
2023-01-08T21:11:24.933Z,6.80
2023-01-08T21:13:52.961Z,8.10
2023-01-08T21:16:24.884Z,6.33
2023-01-08T21:18:54.128Z,5.90
2023-01-08T21:21:24.067Z,5.67
2023-01-08T21:23:51.994Z,5.73
2023-01-08T21:26:20.280Z,5.07
2023-01-08T21:28:49.769Z,4.20
2023-01-08T21:31:19.568Z,3.57
2023-01-08T21:33:49.971Z,4.90
2023-01-08T21:36:19.514Z,2.80
2023-01-08T21:38:48.025Z,2.40
2023-01-08T21:41:32.350Z,3.00
2023-01-08T21:44:17.746Z,3.73
2023-01-08T21:46:45.820Z,3.63
2023-01-08T21:49:15.368Z,4.40
2023-01-08T21:52:00.577Z,3.23
2023-01-08T21:54:28.372Z,2.50
2023-01-08T21:56:56.190Z,4.73
2023-01-08T21:59:24.032Z,3.17
2023-01-08T22:01:52.012Z,3.60
2023-01-08T22:04:21.353Z,4.00
2023-01-08T22:06:49.128Z,3.73
2023-01-08T22:09:16.988Z,5.33
2023-01-08T22:11:47.131Z,3.97
2023-01-08T22:14:14.951Z,4.77
2023-01-08T22:16:42.758Z,5.80
2023-01-08T22:19:11.109Z,6.00
2023-01-08T22:21:40.180Z,5.43
2023-01-08T22:24:08.215Z,6.40
2023-01-08T22:26:36.101Z,6.50
2023-01-08T22:29:06.911Z,8.00
2023-01-08T22:31:35.360Z,6.33
2023-01-08T22:34:03.184Z,5.83
2023-01-08T22:36:33.363Z,4.93
2023-01-08T22:39:02.587Z,4.83
2023-01-08T22:41:30.455Z,7.27
2023-01-08T22:43:58.311Z,5.37
2023-01-08T22:46:26.683Z,6.63
2023-01-08T22:48:54.944Z,5.73
2023-01-08T22:51:26.434Z,7.80
2023-01-08T22:53:55.341Z,7.10
2023-01-08T22:56:27.734Z,6.00
2023-01-08T22:58:55.824Z,5.50
2023-01-08T23:01:26.440Z,6.13
2023-01-08T23:03:57.927Z,6.07
2023-01-08T23:06:30.154Z,6.30
2023-01-08T23:08:58.381Z,6.73
2023-01-08T23:11:28.378Z,6.93
2023-01-08T23:13:56.837Z,6.97
2023-01-08T23:16:27.062Z,6.37
2023-01-08T23:18:55.719Z,6.07
2023-01-08T23:21:28.484Z,6.27
2023-01-08T23:23:56.554Z,6.13
2023-01-08T23:26:27.960Z,6.07
2023-01-08T23:28:57.235Z,7.50
2023-01-08T23:31:26.967Z,5.33
2023-01-08T23:33:54.908Z,5.20
2023-01-08T23:36:23.276Z,5.60
2023-01-08T23:38:53.022Z,4.47
2023-01-08T23:41:23.224Z,4.23
2023-01-08T23:43:54.608Z,5.50
2023-01-08T23:46:22.621Z,4.00
2023-01-08T23:48:53.401Z,4.43
2023-01-08T23:51:21.542Z,4.57
2023-01-08T23:53:51.386Z,4.67
2023-01-08T23:56:22.643Z,4.40
2023-01-08T23:58:53.111Z,4.00
